sensor_id;sensor_type;location;lat;lon;timestamp;P1;durP1;ratioP1;P2;durP2;ratioP2
12770;SDS011;6449;47.666;9.160;2022-08-20T00:02:48;14.45;;;12.30;;
12770;SDS011;6449;47.666;9.160;2022-08-20T00:07:46;13.95;;;12.13;;
12770;SDS011;6449;47.666;9.160;2022-08-20T00:12:42;16.73;;;12.95;;
12770;SDS011;6449;47.666;9.160;2022-08-20T00:17:38;17.15;;;12.27;;
12770;SDS011;6449;47.666;9.160;2022-08-20T00:22:33;15.27;;;12.30;;
12770;SDS011;6449;47.666;9.160;2022-08-20T00:27:28;13.65;;;11.77;;
12770;SDS011;6449;47.666;9.160;2022-08-20T00:32:21;14.15;;;12.65;;
12770;SDS011;6449;47.666;9.160;2022-08-20T00:37:15;18.38;;;12.88;;
12770;SDS011;6449;47.666;9.160;2022-08-20T00:42:08;14.63;;;12.55;;
12770;SDS011;6449;47.666;9.160;2022-08-20T00:47:04;13.57;;;11.85;;
12770;SDS011;6449;47.666;9.160;2022-08-20T00:52:01;17.02;;;12.50;;
12770;SDS011;6449;47.666;9.160;2022-08-20T00:57:00;15.32;;;12.55;;
12770;SDS011;6449;47.666;9.160;2022-08-20T01:01:59;13.60;;;11.65;;
12770;SDS011;6449;47.666;9.160;2022-08-20T01:06:55;15.95;;;13.30;;
12770;SDS011;6449;47.666;9.160;2022-08-20T01:11:49;14.85;;;12.25;;
12770;SDS011;6449;47.666;9.160;2022-08-20T01:16:42;14.10;;;12.32;;
12770;SDS011;6449;47.666;9.160;2022-08-20T01:21:39;14.30;;;11.90;;
12770;SDS011;6449;47.666;9.160;2022-08-20T01:26:41;15.68;;;13.48;;
12770;SDS011;6449;47.666;9.160;2022-08-20T01:31:38;15.20;;;12.60;;
12770;SDS011;6449;47.666;9.160;2022-08-20T01:36:34;15.25;;;13.20;;
12770;SDS011;6449;47.666;9.160;2022-08-20T01:47:07;16.60;;;13.02;;
12770;SDS011;6449;47.666;9.160;2022-08-20T01:52:14;14.88;;;12.32;;
12770;SDS011;6449;47.666;9.160;2022-08-20T01:57:18;14.90;;;12.35;;
12770;SDS011;6449;47.666;9.160;2022-08-20T02:02:17;15.82;;;12.68;;
12770;SDS011;6449;47.666;9.160;2022-08-20T02:07:12;17.48;;;12.98;;
12770;SDS011;6449;47.666;9.160;2022-08-20T02:12:09;15.45;;;12.35;;
12770;SDS011;6449;47.666;9.160;2022-08-20T02:17:06;14.85;;;12.00;;
12770;SDS011;6449;47.666;9.160;2022-08-20T02:22:01;14.82;;;11.85;;
12770;SDS011;6449;47.666;9.160;2022-08-20T02:27:03;12.93;;;11.23;;
12770;SDS011;6449;47.666;9.160;2022-08-20T02:31:57;13.50;;;11.40;;
12770;SDS011;6449;47.666;9.160;2022-08-20T02:37:12;15.52;;;12.15;;
12770;SDS011;6449;47.666;9.160;2022-08-20T02:42:08;12.82;;;11.30;;
12770;SDS011;6449;47.666;9.160;2022-08-20T02:47:03;14.02;;;12.15;;
12770;SDS011;6449;47.666;9.160;2022-08-20T02:51:57;15.35;;;13.00;;
12770;SDS011;6449;47.666;9.160;2022-08-20T02:56:52;14.05;;;11.93;;
12770;SDS011;6449;47.666;9.160;2022-08-20T03:01:46;13.82;;;11.65;;
12770;SDS011;6449;47.666;9.160;2022-08-20T03:06:50;14.82;;;12.10;;
12770;SDS011;6449;47.666;9.160;2022-08-20T03:11:44;14.00;;;12.07;;
12770;SDS011;6449;47.666;9.160;2022-08-20T03:16:39;17.30;;;13.15;;
12770;SDS011;6449;47.666;9.160;2022-08-20T03:21:33;14.10;;;12.23;;
12770;SDS011;6449;47.666;9.160;2022-08-20T03:26:27;15.02;;;12.60;;
12770;SDS011;6449;47.666;9.160;2022-08-20T03:31:21;14.75;;;12.45;;
12770;SDS011;6449;47.666;9.160;2022-08-20T03:36:16;15.52;;;13.07;;
12770;SDS011;6449;47.666;9.160;2022-08-20T03:41:17;18.20;;;13.68;;
12770;SDS011;6449;47.666;9.160;2022-08-20T03:46:11;15.57;;;12.68;;
12770;SDS011;6449;47.666;9.160;2022-08-20T03:51:14;17.23;;;13.85;;
12770;SDS011;6449;47.666;9.160;2022-08-20T03:56:08;17.88;;;14.13;;
12770;SDS011;6449;47.666;9.160;2022-08-20T04:01:03;19.80;;;14.82;;
12770;SDS011;6449;47.666;9.160;2022-08-20T04:06:19;18.27;;;14.95;;
12770;SDS011;6449;47.666;9.160;2022-08-20T04:11:13;17.48;;;13.85;;
12770;SDS011;6449;47.666;9.160;2022-08-20T04:16:06;20.33;;;15.68;;
12770;SDS011;6449;47.666;9.160;2022-08-20T04:21:04;17.88;;;14.50;;
12770;SDS011;6449;47.666;9.160;2022-08-20T04:25:59;16.17;;;13.38;;
12770;SDS011;6449;47.666;9.160;2022-08-20T04:30:53;17.33;;;13.68;;
12770;SDS011;6449;47.666;9.160;2022-08-20T04:35:49;17.02;;;13.65;;
12770;SDS011;6449;47.666;9.160;2022-08-20T04:40:42;18.90;;;13.95;;
12770;SDS011;6449;47.666;9.160;2022-08-20T04:45:49;17.88;;;13.90;;
12770;SDS011;6449;47.666;9.160;2022-08-20T04:50:44;21.00;;;14.05;;
12770;SDS011;6449;47.666;9.160;2022-08-20T04:55:39;17.38;;;14.00;;
12770;SDS011;6449;47.666;9.160;2022-08-20T05:00:34;22.58;;;15.85;;
12770;SDS011;6449;47.666;9.160;2022-08-20T05:05:29;19.25;;;14.57;;
12770;SDS011;6449;47.666;9.160;2022-08-20T05:10:25;18.08;;;13.70;;
12770;SDS011;6449;47.666;9.160;2022-08-20T05:15:20;18.00;;;14.38;;
12770;SDS011;6449;47.666;9.160;2022-08-20T05:20:16;19.65;;;15.13;;
12770;SDS011;6449;47.666;9.160;2022-08-20T05:25:11;18.55;;;14.57;;
12770;SDS011;6449;47.666;9.160;2022-08-20T05:30:06;17.55;;;14.20;;
12770;SDS011;6449;47.666;9.160;2022-08-20T05:35:05;19.45;;;14.75;;
12770;SDS011;6449;47.666;9.160;2022-08-20T05:40:01;18.45;;;14.68;;
12770;SDS011;6449;47.666;9.160;2022-08-20T05:45:02;18.40;;;14.95;;
12770;SDS011;6449;47.666;9.160;2022-08-20T05:50:02;17.92;;;13.40;;
12770;SDS011;6449;47.666;9.160;2022-08-20T05:54:56;18.27;;;15.43;;
12770;SDS011;6449;47.666;9.160;2022-08-20T05:59:50;19.27;;;14.75;;
12770;SDS011;6449;47.666;9.160;2022-08-20T06:04:45;17.60;;;13.93;;
12770;SDS011;6449;47.666;9.160;2022-08-20T06:09:46;15.13;;;12.63;;
12770;SDS011;6449;47.666;9.160;2022-08-20T06:14:40;19.73;;;14.75;;
12770;SDS011;6449;47.666;9.160;2022-08-20T06:19:34;18.65;;;15.32;;
12770;SDS011;6449;47.666;9.160;2022-08-20T06:24:30;16.40;;;12.70;;
12770;SDS011;6449;47.666;9.160;2022-08-20T06:29:23;14.88;;;12.25;;
12770;SDS011;6449;47.666;9.160;2022-08-20T06:34:18;13.73;;;11.73;;
12770;SDS011;6449;47.666;9.160;2022-08-20T06:39:12;17.88;;;14.55;;
12770;SDS011;6449;47.666;9.160;2022-08-20T06:44:08;15.57;;;13.10;;
12770;SDS011;6449;47.666;9.160;2022-08-20T06:49:02;14.68;;;12.75;;
12770;SDS011;6449;47.666;9.160;2022-08-20T06:53:56;14.88;;;11.57;;
12770;SDS011;6449;47.666;9.160;2022-08-20T06:58:50;16.45;;;13.50;;
12770;SDS011;6449;47.666;9.160;2022-08-20T07:03:44;16.05;;;12.98;;
12770;SDS011;6449;47.666;9.160;2022-08-20T07:08:46;18.52;;;13.52;;
12770;SDS011;6449;47.666;9.160;2022-08-20T07:13:39;15.75;;;12.40;;
12770;SDS011;6449;47.666;9.160;2022-08-20T07:18:33;14.13;;;11.38;;
12770;SDS011;6449;47.666;9.160;2022-08-20T07:23:28;14.60;;;12.40;;
12770;SDS011;6449;47.666;9.160;2022-08-20T07:28:22;13.15;;;11.43;;
12770;SDS011;6449;47.666;9.160;2022-08-20T07:33:19;14.45;;;10.95;;
12770;SDS011;6449;47.666;9.160;2022-08-20T07:38:13;14.43;;;12.20;;
12770;SDS011;6449;47.666;9.160;2022-08-20T07:43:15;12.40;;;10.77;;
12770;SDS011;6449;47.666;9.160;2022-08-20T07:48:10;12.18;;;10.55;;
12770;SDS011;6449;47.666;9.160;2022-08-20T07:53:22;10.38;;;9.27;;
12770;SDS011;6449;47.666;9.160;2022-08-20T07:58:19;14.15;;;11.25;;
12770;SDS011;6449;47.666;9.160;2022-08-20T08:03:23;11.85;;;10.30;;
12770;SDS011;6449;47.666;9.160;2022-08-20T08:08:38;12.55;;;10.73;;
12770;SDS011;6449;47.666;9.160;2022-08-20T08:13:36;12.82;;;10.88;;
12770;SDS011;6449;47.666;9.160;2022-08-20T08:18:33;13.18;;;10.95;;
12770;SDS011;6449;47.666;9.160;2022-08-20T08:23:32;13.38;;;10.73;;
12770;SDS011;6449;47.666;9.160;2022-08-20T08:28:26;11.98;;;10.23;;
12770;SDS011;6449;47.666;9.160;2022-08-20T08:33:22;13.52;;;11.07;;
12770;SDS011;6449;47.666;9.160;2022-08-20T08:38:19;11.95;;;10.68;;
12770;SDS011;6449;47.666;9.160;2022-08-20T08:43:14;12.20;;;11.00;;
12770;SDS011;6449;47.666;9.160;2022-08-20T08:48:12;11.13;;;9.50;;
12770;SDS011;6449;47.666;9.160;2022-08-20T08:53:15;10.82;;;9.48;;
12770;SDS011;6449;47.666;9.160;2022-08-20T08:58:14;10.55;;;9.45;;
12770;SDS011;6449;47.666;9.160;2022-08-20T09:03:08;8.90;;;8.00;;
12770;SDS011;6449;47.666;9.160;2022-08-20T09:08:09;8.00;;;7.15;;
12770;SDS011;6449;47.666;9.160;2022-08-20T09:13:09;7.35;;;6.30;;
12770;SDS011;6449;47.666;9.160;2022-08-20T09:18:03;5.97;;;5.38;;
12770;SDS011;6449;47.666;9.160;2022-08-20T09:22:56;5.85;;;5.28;;
12770;SDS011;6449;47.666;9.160;2022-08-20T09:27:51;4.68;;;4.28;;
12770;SDS011;6449;47.666;9.160;2022-08-20T09:32:44;4.68;;;4.28;;
12770;SDS011;6449;47.666;9.160;2022-08-20T09:37:38;4.50;;;4.03;;
12770;SDS011;6449;47.666;9.160;2022-08-20T09:42:32;4.03;;;3.63;;
12770;SDS011;6449;47.666;9.160;2022-08-20T09:47:33;4.30;;;3.90;;
12770;SDS011;6449;47.666;9.160;2022-08-20T09:52:29;4.57;;;4.18;;
12770;SDS011;6449;47.666;9.160;2022-08-20T09:57:32;7.15;;;4.75;;
12770;SDS011;6449;47.666;9.160;2022-08-20T10:02:33;5.57;;;4.38;;
12770;SDS011;6449;47.666;9.160;2022-08-20T10:07:51;4.53;;;4.13;;
12770;SDS011;6449;47.666;9.160;2022-08-20T10:12:46;4.32;;;3.60;;
12770;SDS011;6449;47.666;9.160;2022-08-20T10:17:49;3.03;;;2.83;;
12770;SDS011;6449;47.666;9.160;2022-08-20T10:22:54;2.50;;;2.30;;
12770;SDS011;6449;47.666;9.160;2022-08-20T10:27:50;3.38;;;2.17;;
12770;SDS011;6449;47.666;9.160;2022-08-20T10:32:44;2.70;;;2.50;;
12770;SDS011;6449;47.666;9.160;2022-08-20T10:37:39;1.90;;;1.80;;
12770;SDS011;6449;47.666;9.160;2022-08-20T10:42:32;2.30;;;2.10;;
12770;SDS011;6449;47.666;9.160;2022-08-20T10:47:32;2.10;;;1.90;;
12770;SDS011;6449;47.666;9.160;2022-08-20T10:52:26;2.10;;;1.85;;
12770;SDS011;6449;47.666;9.160;2022-08-20T10:57:22;2.80;;;2.28;;
12770;SDS011;6449;47.666;9.160;2022-08-20T11:02:20;1.90;;;1.80;;
12770;SDS011;6449;47.666;9.160;2022-08-20T11:07:15;1.40;;;1.30;;
12770;SDS011;6449;47.666;9.160;2022-08-20T11:12:33;0.70;;;0.70;;
12770;SDS011;6449;47.666;9.160;2022-08-20T11:17:28;0.90;;;0.90;;
12770;SDS011;6449;47.666;9.160;2022-08-20T11:22:27;0.90;;;0.90;;
12770;SDS011;6449;47.666;9.160;2022-08-20T11:32:18;0.80;;;0.80;;
12770;SDS011;6449;47.666;9.160;2022-08-20T11:37:12;0.70;;;0.70;;
12770;SDS011;6449;47.666;9.160;2022-08-20T11:42:08;1.92;;;0.90;;
12770;SDS011;6449;47.666;9.160;2022-08-20T11:47:03;1.20;;;1.10;;
12770;SDS011;6449;47.666;9.160;2022-08-20T11:56:55;1.77;;;1.00;;
12770;SDS011;6449;47.666;9.160;2022-08-20T12:07:06;0.98;;;0.88;;
12770;SDS011;6449;47.666;9.160;2022-08-20T12:42:55;1.13;;;1.02;;
12770;SDS011;6449;47.666;9.160;2022-08-20T12:47:49;0.90;;;0.90;;
12770;SDS011;6449;47.666;9.160;2022-08-20T12:58:18;0.95;;;0.95;;
12770;SDS011;6449;47.666;9.160;2022-08-20T13:03:12;1.13;;;1.02;;
12770;SDS011;6449;47.666;9.160;2022-08-20T13:08:06;1.00;;;0.90;;
12770;SDS011;6449;47.666;9.160;2022-08-20T13:13:02;0.98;;;0.98;;
12770;SDS011;6449;47.666;9.160;2022-08-20T13:17:57;0.82;;;0.82;;
12770;SDS011;6449;47.666;9.160;2022-08-20T13:22:54;1.10;;;0.98;;
12770;SDS011;6449;47.666;9.160;2022-08-20T13:27:48;0.65;;;0.65;;
12770;SDS011;6449;47.666;9.160;2022-08-20T13:32:47;1.23;;;1.10;;
12770;SDS011;6449;47.666;9.160;2022-08-20T13:37:42;0.77;;;0.77;;
12770;SDS011;6449;47.666;9.160;2022-08-20T13:42:36;1.00;;;0.88;;
12770;SDS011;6449;47.666;9.160;2022-08-20T13:47:31;0.70;;;0.70;;
12770;SDS011;6449;47.666;9.160;2022-08-20T13:52:28;0.63;;;0.63;;
12770;SDS011;6449;47.666;9.160;2022-08-20T13:57:24;0.60;;;0.60;;
12770;SDS011;6449;47.666;9.160;2022-08-20T14:02:18;0.57;;;0.57;;
12770;SDS011;6449;47.666;9.160;2022-08-20T14:07:13;0.93;;;0.70;;
12770;SDS011;6449;47.666;9.160;2022-08-20T14:12:09;0.80;;;0.80;;
12770;SDS011;6449;47.666;9.160;2022-08-20T14:17:15;0.40;;;0.40;;
12770;SDS011;6449;47.666;9.160;2022-08-20T14:22:12;0.47;;;0.47;;
12770;SDS011;6449;47.666;9.160;2022-08-20T14:27:07;0.43;;;0.43;;
12770;SDS011;6449;47.666;9.160;2022-08-20T14:32:01;0.47;;;0.30;;
12770;SDS011;6449;47.666;9.160;2022-08-20T14:36:57;0.40;;;0.28;;
12770;SDS011;6449;47.666;9.160;2022-08-20T14:42:03;0.50;;;0.40;;
12770;SDS011;6449;47.666;9.160;2022-08-20T14:46:57;0.50;;;0.50;;
12770;SDS011;6449;47.666;9.160;2022-08-20T14:52:05;0.68;;;0.38;;
12770;SDS011;6449;47.666;9.160;2022-08-20T15:02:10;0.50;;;0.50;;
12770;SDS011;6449;47.666;9.160;2022-08-20T15:17:28;0.57;;;0.52;;
12770;SDS011;6449;47.666;9.160;2022-08-20T15:27:23;0.65;;;0.60;;
12770;SDS011;6449;47.666;9.160;2022-08-20T15:32:18;0.70;;;0.70;;
12770;SDS011;6449;47.666;9.160;2022-08-20T15:37:14;0.70;;;0.70;;
12770;SDS011;6449;47.666;9.160;2022-08-20T16:18:25;0.98;;;0.95;;
12770;SDS011;6449;47.666;9.160;2022-08-20T16:59:31;1.08;;;0.80;;
12770;SDS011;6449;47.666;9.160;2022-08-20T17:14:24;0.82;;;0.82;;
12770;SDS011;6449;47.666;9.160;2022-08-20T17:24:21;0.90;;;0.90;;
12770;SDS011;6449;47.666;9.160;2022-08-20T17:29:20;1.35;;;0.70;;
12770;SDS011;6449;47.666;9.160;2022-08-20T17:34:16;0.80;;;0.80;;
12770;SDS011;6449;47.666;9.160;2022-08-20T17:39:14;1.20;;;1.10;;
12770;SDS011;6449;47.666;9.160;2022-08-20T17:44:16;0.70;;;0.70;;
12770;SDS011;6449;47.666;9.160;2022-08-20T17:49:16;0.88;;;0.88;;
12770;SDS011;6449;47.666;9.160;2022-08-20T17:54:13;1.52;;;0.85;;
12770;SDS011;6449;47.666;9.160;2022-08-20T17:59:20;0.73;;;0.73;;
12770;SDS011;6449;47.666;9.160;2022-08-20T18:04:42;1.15;;;1.05;;
12770;SDS011;6449;47.666;9.160;2022-08-20T18:09:42;1.15;;;1.05;;
12770;SDS011;6449;47.666;9.160;2022-08-20T18:14:52;0.90;;;0.90;;
12770;SDS011;6449;47.666;9.160;2022-08-20T18:20:04;1.35;;;1.10;;
12770;SDS011;6449;47.666;9.160;2022-08-20T18:25:24;1.00;;;1.00;;
12770;SDS011;6449;47.666;9.160;2022-08-20T18:30:28;0.85;;;0.80;;
12770;SDS011;6449;47.666;9.160;2022-08-20T18:35:30;1.00;;;0.90;;
12770;SDS011;6449;47.666;9.160;2022-08-20T18:40:36;0.60;;;0.60;;
12770;SDS011;6449;47.666;9.160;2022-08-20T18:45:34;1.10;;;1.00;;
12770;SDS011;6449;47.666;9.160;2022-08-20T18:50:30;0.77;;;0.77;;
12770;SDS011;6449;47.666;9.160;2022-08-20T18:55:36;0.80;;;0.80;;
12770;SDS011;6449;47.666;9.160;2022-08-20T19:00:35;2.10;;;1.83;;
12770;SDS011;6449;47.666;9.160;2022-08-20T19:05:35;1.48;;;1.20;;
12770;SDS011;6449;47.666;9.160;2022-08-20T19:15:50;0.80;;;0.80;;
12770;SDS011;6449;47.666;9.160;2022-08-20T19:20:54;2.10;;;0.70;;
12770;SDS011;6449;47.666;9.160;2022-08-20T19:25:53;1.20;;;1.10;;
12770;SDS011;6449;47.666;9.160;2022-08-20T19:31:10;0.73;;;0.73;;
12770;SDS011;6449;47.666;9.160;2022-08-20T19:36:09;1.00;;;1.00;;
12770;SDS011;6449;47.666;9.160;2022-08-20T19:46:17;1.30;;;1.20;;
12770;SDS011;6449;47.666;9.160;2022-08-20T19:51:19;2.05;;;1.00;;
12770;SDS011;6449;47.666;9.160;2022-08-20T19:56:22;1.30;;;1.15;;
12770;SDS011;6449;47.666;9.160;2022-08-20T20:22:04;2.53;;;1.02;;
12770;SDS011;6449;47.666;9.160;2022-08-20T22:11:21;2.13;;;1.50;;
12770;SDS011;6449;47.666;9.160;2022-08-20T22:32:40;1.50;;;1.40;;
